sensor_id;sensor_type;location;lat;lon;timestamp;P1;durP1;ratioP1;P2;durP2;ratioP2
42244;SDS011;27912;51.828;5.688;2022-12-07T00:01:06;17.05;;;10.80;;
42244;SDS011;27912;51.828;5.688;2022-12-07T00:03:34;19.20;;;10.90;;
42244;SDS011;27912;51.828;5.688;2022-12-07T00:06:00;16.80;;;11.82;;
42244;SDS011;27912;51.828;5.688;2022-12-07T00:08:26;17.33;;;10.43;;
42244;SDS011;27912;51.828;5.688;2022-12-07T00:10:52;20.70;;;10.93;;
42244;SDS011;27912;51.828;5.688;2022-12-07T00:13:18;20.25;;;10.60;;
42244;SDS011;27912;51.828;5.688;2022-12-07T00:15:43;21.45;;;10.90;;
42244;SDS011;27912;51.828;5.688;2022-12-07T00:18:09;18.63;;;10.35;;
42244;SDS011;27912;51.828;5.688;2022-12-07T00:20:35;27.00;;;10.75;;
42244;SDS011;27912;51.828;5.688;2022-12-07T00:23:00;18.55;;;10.52;;
42244;SDS011;27912;51.828;5.688;2022-12-07T00:25:26;19.42;;;11.07;;
42244;SDS011;27912;51.828;5.688;2022-12-07T00:27:52;18.13;;;10.23;;
42244;SDS011;27912;51.828;5.688;2022-12-07T00:30:20;19.80;;;10.68;;
42244;SDS011;27912;51.828;5.688;2022-12-07T00:32:46;21.35;;;11.10;;
42244;SDS011;27912;51.828;5.688;2022-12-07T00:35:11;21.45;;;10.65;;
42244;SDS011;27912;51.828;5.688;2022-12-07T00:37:37;22.52;;;10.38;;
42244;SDS011;27912;51.828;5.688;2022-12-07T00:40:02;18.13;;;9.95;;
42244;SDS011;27912;51.828;5.688;2022-12-07T00:42:28;21.48;;;9.90;;
42244;SDS011;27912;51.828;5.688;2022-12-07T00:44:53;19.73;;;10.32;;
42244;SDS011;27912;51.828;5.688;2022-12-07T00:47:19;14.95;;;8.95;;
42244;SDS011;27912;51.828;5.688;2022-12-07T00:49:44;23.35;;;10.65;;
42244;SDS011;27912;51.828;5.688;2022-12-07T00:52:10;18.55;;;9.88;;
42244;SDS011;27912;51.828;5.688;2022-12-07T00:54:36;16.90;;;9.52;;
42244;SDS011;27912;51.828;5.688;2022-12-07T00:57:01;22.15;;;9.40;;
42244;SDS011;27912;51.828;5.688;2022-12-07T00:59:27;14.52;;;8.70;;
42244;SDS011;27912;51.828;5.688;2022-12-07T01:01:52;17.05;;;9.10;;
42244;SDS011;27912;51.828;5.688;2022-12-07T01:04:18;19.70;;;10.07;;
42244;SDS011;27912;51.828;5.688;2022-12-07T01:06:43;21.45;;;10.55;;
42244;SDS011;27912;51.828;5.688;2022-12-07T01:09:09;26.38;;;10.80;;
42244;SDS011;27912;51.828;5.688;2022-12-07T01:11:34;23.48;;;10.90;;
42244;SDS011;27912;51.828;5.688;2022-12-07T01:14:00;20.10;;;10.57;;
42244;SDS011;27912;51.828;5.688;2022-12-07T01:16:26;18.17;;;10.13;;
42244;SDS011;27912;51.828;5.688;2022-12-07T01:18:53;17.30;;;10.18;;
42244;SDS011;27912;51.828;5.688;2022-12-07T01:21:24;18.25;;;9.57;;
42244;SDS011;27912;51.828;5.688;2022-12-07T01:23:52;16.02;;;10.25;;
42244;SDS011;27912;51.828;5.688;2022-12-07T01:26:18;20.75;;;9.77;;
42244;SDS011;27912;51.828;5.688;2022-12-07T01:28:46;22.42;;;11.02;;
42244;SDS011;27912;51.828;5.688;2022-12-07T01:31:19;21.90;;;10.68;;
42244;SDS011;27912;51.828;5.688;2022-12-07T01:33:47;21.33;;;10.85;;
42244;SDS011;27912;51.828;5.688;2022-12-07T01:36:21;18.70;;;11.18;;
42244;SDS011;27912;51.828;5.688;2022-12-07T01:38:53;19.85;;;11.80;;
42244;SDS011;27912;51.828;5.688;2022-12-07T01:41:21;20.23;;;11.68;;
42244;SDS011;27912;51.828;5.688;2022-12-07T01:46:59;24.00;;;11.90;;
42244;SDS011;27912;51.828;5.688;2022-12-07T01:52:07;23.33;;;12.38;;
42244;SDS011;27912;51.828;5.688;2022-12-07T01:54:41;19.77;;;11.85;;
42244;SDS011;27912;51.828;5.688;2022-12-07T01:57:08;24.60;;;13.18;;
42244;SDS011;27912;51.828;5.688;2022-12-07T01:59:34;21.15;;;12.50;;
42244;SDS011;27912;51.828;5.688;2022-12-07T02:02:00;20.75;;;12.18;;
42244;SDS011;27912;51.828;5.688;2022-12-07T02:04:28;23.02;;;12.45;;
42244;SDS011;27912;51.828;5.688;2022-12-07T02:06:55;21.33;;;11.05;;
42244;SDS011;27912;51.828;5.688;2022-12-07T02:09:22;21.33;;;11.90;;
42244;SDS011;27912;51.828;5.688;2022-12-07T02:11:48;28.00;;;11.63;;
42244;SDS011;27912;51.828;5.688;2022-12-07T02:14:14;23.35;;;12.55;;
42244;SDS011;27912;51.828;5.688;2022-12-07T02:19:46;17.50;;;10.75;;
42244;SDS011;27912;51.828;5.688;2022-12-07T02:22:50;22.90;;;10.82;;
42244;SDS011;27912;51.828;5.688;2022-12-07T02:31:33;22.27;;;9.63;;
42244;SDS011;27912;51.828;5.688;2022-12-07T02:34:04;18.58;;;11.35;;
42244;SDS011;27912;51.828;5.688;2022-12-07T02:36:36;19.45;;;9.88;;
42244;SDS011;27912;51.828;5.688;2022-12-07T02:39:09;20.25;;;10.32;;
42244;SDS011;27912;51.828;5.688;2022-12-07T02:41:39;15.25;;;10.15;;
42244;SDS011;27912;51.828;5.688;2022-12-07T02:44:13;17.88;;;9.50;;
42244;SDS011;27912;51.828;5.688;2022-12-07T02:49:09;17.10;;;9.00;;
42244;SDS011;27912;51.828;5.688;2022-12-07T02:51:38;21.67;;;8.82;;
42244;SDS011;27912;51.828;5.688;2022-12-07T02:54:09;20.35;;;9.52;;
42244;SDS011;27912;51.828;5.688;2022-12-07T03:05:01;17.70;;;8.73;;
42244;SDS011;27912;51.828;5.688;2022-12-07T03:16:15;16.58;;;7.85;;
42244;SDS011;27912;51.828;5.688;2022-12-07T03:18:52;15.52;;;8.55;;
42244;SDS011;27912;51.828;5.688;2022-12-07T03:21:25;14.77;;;8.77;;
42244;SDS011;27912;51.828;5.688;2022-12-07T03:23:54;19.17;;;7.85;;
42244;SDS011;27912;51.828;5.688;2022-12-07T03:26:22;17.92;;;7.78;;
42244;SDS011;27912;51.828;5.688;2022-12-07T03:28:56;19.92;;;8.20;;
42244;SDS011;27912;51.828;5.688;2022-12-07T03:31:28;15.60;;;8.10;;
42244;SDS011;27912;51.828;5.688;2022-12-07T03:36:46;18.55;;;7.85;;
42244;SDS011;27912;51.828;5.688;2022-12-07T03:41:53;17.92;;;8.25;;
42244;SDS011;27912;51.828;5.688;2022-12-07T03:44:19;18.17;;;7.82;;
42244;SDS011;27912;51.828;5.688;2022-12-07T03:47:01;16.67;;;7.72;;
42244;SDS011;27912;51.828;5.688;2022-12-07T03:49:43;18.00;;;7.82;;
42244;SDS011;27912;51.828;5.688;2022-12-07T03:55:08;17.02;;;7.00;;
42244;SDS011;27912;51.828;5.688;2022-12-07T03:57:43;12.13;;;5.95;;
42244;SDS011;27912;51.828;5.688;2022-12-07T04:00:11;14.77;;;6.93;;
42244;SDS011;27912;51.828;5.688;2022-12-07T04:02:38;14.27;;;7.20;;
42244;SDS011;27912;51.828;5.688;2022-12-07T04:05:04;17.63;;;6.68;;
42244;SDS011;27912;51.828;5.688;2022-12-07T04:07:30;21.17;;;6.32;;
42244;SDS011;27912;51.828;5.688;2022-12-07T04:09:56;12.45;;;5.20;;
42244;SDS011;27912;51.828;5.688;2022-12-07T04:12:22;14.52;;;5.70;;
42244;SDS011;27912;51.828;5.688;2022-12-07T04:14:47;19.35;;;5.85;;
42244;SDS011;27912;51.828;5.688;2022-12-07T04:17:13;16.13;;;6.63;;
42244;SDS011;27912;51.828;5.688;2022-12-07T04:19:39;14.98;;;5.68;;
42244;SDS011;27912;51.828;5.688;2022-12-07T04:22:05;11.50;;;5.72;;
42244;SDS011;27912;51.828;5.688;2022-12-07T04:24:33;10.13;;;5.07;;
42244;SDS011;27912;51.828;5.688;2022-12-07T04:26:59;11.98;;;5.22;;
42244;SDS011;27912;51.828;5.688;2022-12-07T04:29:24;12.82;;;4.93;;
42244;SDS011;27912;51.828;5.688;2022-12-07T04:31:50;12.77;;;5.18;;
42244;SDS011;27912;51.828;5.688;2022-12-07T04:34:17;14.25;;;4.90;;
42244;SDS011;27912;51.828;5.688;2022-12-07T04:36:44;10.10;;;4.97;;
42244;SDS011;27912;51.828;5.688;2022-12-07T04:39:17;12.35;;;4.95;;
42244;SDS011;27912;51.828;5.688;2022-12-07T04:41:51;16.30;;;4.75;;
42244;SDS011;27912;51.828;5.688;2022-12-07T04:44:17;11.75;;;4.32;;
42244;SDS011;27912;51.828;5.688;2022-12-07T04:46:44;13.45;;;3.92;;
42244;SDS011;27912;51.828;5.688;2022-12-07T04:49:10;17.90;;;5.35;;
42244;SDS011;27912;51.828;5.688;2022-12-07T04:51:37;12.65;;;4.35;;
42244;SDS011;27912;51.828;5.688;2022-12-07T04:54:03;13.80;;;4.85;;
42244;SDS011;27912;51.828;5.688;2022-12-07T04:56:29;19.13;;;5.13;;
42244;SDS011;27912;51.828;5.688;2022-12-07T04:58:54;12.27;;;5.47;;
42244;SDS011;27912;51.828;5.688;2022-12-07T05:01:20;15.10;;;5.28;;
42244;SDS011;27912;51.828;5.688;2022-12-07T05:03:47;17.65;;;4.95;;
42244;SDS011;27912;51.828;5.688;2022-12-07T05:06:13;12.35;;;4.85;;
42244;SDS011;27912;51.828;5.688;2022-12-07T05:08:39;11.82;;;5.57;;
42244;SDS011;27912;51.828;5.688;2022-12-07T05:11:06;13.75;;;4.28;;
42244;SDS011;27912;51.828;5.688;2022-12-07T05:13:32;15.63;;;4.57;;
42244;SDS011;27912;51.828;5.688;2022-12-07T05:15:58;15.30;;;5.07;;
42244;SDS011;27912;51.828;5.688;2022-12-07T05:18:24;14.02;;;4.80;;
42244;SDS011;27912;51.828;5.688;2022-12-07T05:20:50;14.13;;;5.30;;
42244;SDS011;27912;51.828;5.688;2022-12-07T05:23:16;15.60;;;5.00;;
42244;SDS011;27912;51.828;5.688;2022-12-07T05:25:42;14.45;;;5.05;;
42244;SDS011;27912;51.828;5.688;2022-12-07T05:28:07;8.48;;;4.00;;
42244;SDS011;27912;51.828;5.688;2022-12-07T05:30:33;13.27;;;3.83;;
42244;SDS011;27912;51.828;5.688;2022-12-07T05:32:59;8.48;;;3.40;;
42244;SDS011;27912;51.828;5.688;2022-12-07T05:35:24;14.23;;;4.10;;
42244;SDS011;27912;51.828;5.688;2022-12-07T05:37:50;10.20;;;3.22;;
42244;SDS011;27912;51.828;5.688;2022-12-07T05:40:16;8.80;;;2.70;;
42244;SDS011;27912;51.828;5.688;2022-12-07T05:42:42;5.60;;;2.20;;
42244;SDS011;27912;51.828;5.688;2022-12-07T05:45:08;9.38;;;2.30;;
42244;SDS011;27912;51.828;5.688;2022-12-07T05:47:35;8.40;;;1.90;;
42244;SDS011;27912;51.828;5.688;2022-12-07T05:50:00;9.25;;;2.08;;
42244;SDS011;27912;51.828;5.688;2022-12-07T05:52:26;9.30;;;2.60;;
42244;SDS011;27912;51.828;5.688;2022-12-07T05:54:52;6.65;;;1.98;;
42244;SDS011;27912;51.828;5.688;2022-12-07T05:57:18;9.50;;;1.60;;
42244;SDS011;27912;51.828;5.688;2022-12-07T05:59:43;9.25;;;2.72;;
42244;SDS011;27912;51.828;5.688;2022-12-07T06:02:13;12.60;;;2.20;;
42244;SDS011;27912;51.828;5.688;2022-12-07T06:04:40;4.35;;;1.45;;
42244;SDS011;27912;51.828;5.688;2022-12-07T06:07:11;6.53;;;1.80;;
42244;SDS011;27912;51.828;5.688;2022-12-07T06:09:37;8.02;;;1.77;;
42244;SDS011;27912;51.828;5.688;2022-12-07T06:12:03;10.48;;;1.98;;
42244;SDS011;27912;51.828;5.688;2022-12-07T06:14:48;11.60;;;1.55;;
42244;SDS011;27912;51.828;5.688;2022-12-07T06:17:13;7.15;;;1.60;;
42244;SDS011;27912;51.828;5.688;2022-12-07T06:19:39;6.95;;;1.30;;
42244;SDS011;27912;51.828;5.688;2022-12-07T06:22:05;7.90;;;1.30;;
42244;SDS011;27912;51.828;5.688;2022-12-07T06:24:32;8.70;;;1.85;;
42244;SDS011;27912;51.828;5.688;2022-12-07T06:26:58;7.85;;;1.50;;
42244;SDS011;27912;51.828;5.688;2022-12-07T06:29:24;7.30;;;1.77;;
42244;SDS011;27912;51.828;5.688;2022-12-07T06:31:50;10.48;;;1.38;;
42244;SDS011;27912;51.828;5.688;2022-12-07T06:34:16;11.10;;;2.08;;
42244;SDS011;27912;51.828;5.688;2022-12-07T06:36:44;9.93;;;1.52;;
42244;SDS011;27912;51.828;5.688;2022-12-07T06:39:10;9.80;;;1.88;;
42244;SDS011;27912;51.828;5.688;2022-12-07T06:41:36;11.93;;;2.40;;
42244;SDS011;27912;51.828;5.688;2022-12-07T06:44:03;10.45;;;1.85;;
42244;SDS011;27912;51.828;5.688;2022-12-07T06:46:29;8.70;;;1.98;;
42244;SDS011;27912;51.828;5.688;2022-12-07T06:48:58;7.18;;;1.48;;
42244;SDS011;27912;51.828;5.688;2022-12-07T06:51:33;11.35;;;1.70;;
42244;SDS011;27912;51.828;5.688;2022-12-07T06:54:12;6.10;;;1.38;;
42244;SDS011;27912;51.828;5.688;2022-12-07T06:56:39;11.45;;;1.77;;
42244;SDS011;27912;51.828;5.688;2022-12-07T06:59:05;9.30;;;1.50;;
42244;SDS011;27912;51.828;5.688;2022-12-07T07:01:31;6.47;;;1.70;;
42244;SDS011;27912;51.828;5.688;2022-12-07T07:03:58;8.90;;;1.58;;
42244;SDS011;27912;51.828;5.688;2022-12-07T07:06:24;16.48;;;2.47;;
42244;SDS011;27912;51.828;5.688;2022-12-07T07:08:50;19.27;;;7.07;;
42244;SDS011;27912;51.828;5.688;2022-12-07T07:11:16;6.32;;;2.15;;
42244;SDS011;27912;51.828;5.688;2022-12-07T07:13:42;12.93;;;2.38;;
42244;SDS011;27912;51.828;5.688;2022-12-07T07:16:08;11.27;;;2.10;;
42244;SDS011;27912;51.828;5.688;2022-12-07T07:18:33;10.15;;;2.10;;
42244;SDS011;27912;51.828;5.688;2022-12-07T07:21:00;9.13;;;2.30;;
42244;SDS011;27912;51.828;5.688;2022-12-07T07:23:26;6.47;;;1.70;;
42244;SDS011;27912;51.828;5.688;2022-12-07T07:25:51;6.07;;;2.08;;
42244;SDS011;27912;51.828;5.688;2022-12-07T07:28:17;14.15;;;2.63;;
42244;SDS011;27912;51.828;5.688;2022-12-07T07:30:42;8.75;;;2.20;;
42244;SDS011;27912;51.828;5.688;2022-12-07T07:33:08;18.45;;;2.90;;
42244;SDS011;27912;51.828;5.688;2022-12-07T07:35:35;9.60;;;2.75;;
42244;SDS011;27912;51.828;5.688;2022-12-07T07:38:00;6.78;;;2.35;;
42244;SDS011;27912;51.828;5.688;2022-12-07T07:40:27;8.40;;;2.47;;
42244;SDS011;27912;51.828;5.688;2022-12-07T07:42:54;10.20;;;1.95;;
42244;SDS011;27912;51.828;5.688;2022-12-07T07:45:20;10.90;;;2.38;;
42244;SDS011;27912;51.828;5.688;2022-12-07T07:47:47;13.48;;;3.40;;
42244;SDS011;27912;51.828;5.688;2022-12-07T07:50:13;11.02;;;2.50;;
42244;SDS011;27912;51.828;5.688;2022-12-07T07:52:38;6.97;;;2.55;;
42244;SDS011;27912;51.828;5.688;2022-12-07T07:55:04;8.43;;;2.65;;
42244;SDS011;27912;51.828;5.688;2022-12-07T07:57:30;6.28;;;1.90;;
42244;SDS011;27912;51.828;5.688;2022-12-07T07:59:56;10.00;;;2.15;;
42244;SDS011;27912;51.828;5.688;2022-12-07T08:02:22;7.25;;;2.22;;
42244;SDS011;27912;51.828;5.688;2022-12-07T08:04:48;13.43;;;2.22;;
42244;SDS011;27912;51.828;5.688;2022-12-07T08:07:14;9.75;;;2.20;;
42244;SDS011;27912;51.828;5.688;2022-12-07T08:09:40;8.52;;;2.13;;
42244;SDS011;27912;51.828;5.688;2022-12-07T08:12:06;10.45;;;1.70;;
42244;SDS011;27912;51.828;5.688;2022-12-07T08:14:31;6.32;;;1.90;;
42244;SDS011;27912;51.828;5.688;2022-12-07T08:16:57;14.50;;;2.28;;
42244;SDS011;27912;51.828;5.688;2022-12-07T08:19:23;12.07;;;2.95;;
42244;SDS011;27912;51.828;5.688;2022-12-07T08:21:48;14.93;;;2.55;;
42244;SDS011;27912;51.828;5.688;2022-12-07T08:24:14;10.02;;;2.17;;
42244;SDS011;27912;51.828;5.688;2022-12-07T08:26:40;14.63;;;2.25;;
42244;SDS011;27912;51.828;5.688;2022-12-07T08:29:06;9.70;;;2.15;;
42244;SDS011;27912;51.828;5.688;2022-12-07T08:31:32;10.07;;;2.10;;
42244;SDS011;27912;51.828;5.688;2022-12-07T08:33:57;7.82;;;2.33;;
42244;SDS011;27912;51.828;5.688;2022-12-07T08:36:23;10.52;;;2.10;;
42244;SDS011;27912;51.828;5.688;2022-12-07T08:38:48;8.88;;;2.08;;
42244;SDS011;27912;51.828;5.688;2022-12-07T08:41:14;11.05;;;1.65;;
42244;SDS011;27912;51.828;5.688;2022-12-07T08:43:40;9.63;;;2.00;;
42244;SDS011;27912;51.828;5.688;2022-12-07T08:46:08;17.55;;;2.45;;
42244;SDS011;27912;51.828;5.688;2022-12-07T08:48:51;8.68;;;1.65;;
42244;SDS011;27912;51.828;5.688;2022-12-07T08:51:20;12.93;;;1.83;;
42244;SDS011;27912;51.828;5.688;2022-12-07T08:53:47;7.40;;;1.70;;
42244;SDS011;27912;51.828;5.688;2022-12-07T08:56:14;9.63;;;2.00;;
42244;SDS011;27912;51.828;5.688;2022-12-07T08:58:40;11.65;;;2.05;;
42244;SDS011;27912;51.828;5.688;2022-12-07T09:01:06;8.65;;;2.08;;
42244;SDS011;27912;51.828;5.688;2022-12-07T09:03:31;13.00;;;1.95;;
42244;SDS011;27912;51.828;5.688;2022-12-07T09:05:57;5.93;;;1.92;;
42244;SDS011;27912;51.828;5.688;2022-12-07T09:08:26;10.50;;;2.70;;
42244;SDS011;27912;51.828;5.688;2022-12-07T09:10:58;5.78;;;1.92;;
42244;SDS011;27912;51.828;5.688;2022-12-07T09:13:23;11.32;;;2.20;;
42244;SDS011;27912;51.828;5.688;2022-12-07T09:15:49;14.40;;;2.47;;
42244;SDS011;27912;51.828;5.688;2022-12-07T09:18:15;15.20;;;2.47;;
42244;SDS011;27912;51.828;5.688;2022-12-07T09:20:40;21.02;;;2.80;;
42244;SDS011;27912;51.828;5.688;2022-12-07T09:23:06;9.88;;;2.20;;
42244;SDS011;27912;51.828;5.688;2022-12-07T09:25:32;12.77;;;2.80;;
42244;SDS011;27912;51.828;5.688;2022-12-07T09:27:58;11.95;;;2.00;;
42244;SDS011;27912;51.828;5.688;2022-12-07T09:30:25;9.23;;;1.95;;
42244;SDS011;27912;51.828;5.688;2022-12-07T09:32:54;16.48;;;2.47;;
42244;SDS011;27912;51.828;5.688;2022-12-07T09:35:21;11.50;;;2.30;;
42244;SDS011;27912;51.828;5.688;2022-12-07T09:37:48;8.48;;;2.25;;
42244;SDS011;27912;51.828;5.688;2022-12-07T09:40:13;10.20;;;2.80;;
42244;SDS011;27912;51.828;5.688;2022-12-07T09:42:43;13.38;;;1.92;;
42244;SDS011;27912;51.828;5.688;2022-12-07T09:45:12;10.05;;;2.13;;
42244;SDS011;27912;51.828;5.688;2022-12-07T09:47:41;9.75;;;2.30;;
42244;SDS011;27912;51.828;5.688;2022-12-07T09:50:14;12.75;;;2.63;;
42244;SDS011;27912;51.828;5.688;2022-12-07T09:52:42;13.05;;;1.90;;
42244;SDS011;27912;51.828;5.688;2022-12-07T09:55:12;7.50;;;1.90;;
42244;SDS011;27912;51.828;5.688;2022-12-07T09:57:40;7.13;;;2.00;;
42244;SDS011;27912;51.828;5.688;2022-12-07T10:00:12;8.98;;;1.60;;
42244;SDS011;27912;51.828;5.688;2022-12-07T10:02:41;9.38;;;1.30;;
42244;SDS011;27912;51.828;5.688;2022-12-07T10:05:17;7.78;;;1.48;;
42244;SDS011;27912;51.828;5.688;2022-12-07T10:07:45;6.88;;;1.42;;
42244;SDS011;27912;51.828;5.688;2022-12-07T10:10:19;11.70;;;1.92;;
42244;SDS011;27912;51.828;5.688;2022-12-07T10:13:33;11.38;;;2.40;;
42244;SDS011;27912;51.828;5.688;2022-12-07T10:18:33;7.88;;;1.90;;
42244;SDS011;27912;51.828;5.688;2022-12-07T10:21:17;7.57;;;0.90;;
42244;SDS011;27912;51.828;5.688;2022-12-07T10:26:37;6.00;;;1.27;;
42244;SDS011;27912;51.828;5.688;2022-12-07T10:29:34;5.47;;;1.60;;
42244;SDS011;27912;51.828;5.688;2022-12-07T10:32:45;7.85;;;1.33;;
42244;SDS011;27912;51.828;5.688;2022-12-07T10:35:23;8.60;;;1.23;;
42244;SDS011;27912;51.828;5.688;2022-12-07T10:37:51;12.70;;;1.50;;
42244;SDS011;27912;51.828;5.688;2022-12-07T10:40:25;10.85;;;1.10;;
42244;SDS011;27912;51.828;5.688;2022-12-07T10:45:27;7.78;;;1.83;;
42244;SDS011;27912;51.828;5.688;2022-12-07T10:56:02;9.40;;;1.00;;
42244;SDS011;27912;51.828;5.688;2022-12-07T10:58:59;5.90;;;0.65;;
42244;SDS011;27912;51.828;5.688;2022-12-07T11:01:51;6.38;;;0.77;;
42244;SDS011;27912;51.828;5.688;2022-12-07T11:04:43;8.02;;;0.88;;
42244;SDS011;27912;51.828;5.688;2022-12-07T11:10:22;7.93;;;0.85;;
42244;SDS011;27912;51.828;5.688;2022-12-07T11:15:26;6.20;;;0.90;;
42244;SDS011;27912;51.828;5.688;2022-12-07T11:18:04;12.68;;;1.17;;
42244;SDS011;27912;51.828;5.688;2022-12-07T11:26:15;8.55;;;0.90;;
42244;SDS011;27912;51.828;5.688;2022-12-07T11:32:00;8.73;;;1.25;;
42244;SDS011;27912;51.828;5.688;2022-12-07T11:37:27;9.10;;;1.40;;
42244;SDS011;27912;51.828;5.688;2022-12-07T11:42:56;4.82;;;0.85;;
42244;SDS011;27912;51.828;5.688;2022-12-07T11:45:27;11.48;;;1.00;;
42244;SDS011;27912;51.828;5.688;2022-12-07T11:47:58;3.67;;;0.82;;
42244;SDS011;27912;51.828;5.688;2022-12-07T11:50:33;4.88;;;0.77;;
42244;SDS011;27912;51.828;5.688;2022-12-07T12:01:07;5.28;;;1.20;;
42244;SDS011;27912;51.828;5.688;2022-12-07T12:03:45;6.30;;;1.77;;
42244;SDS011;27912;51.828;5.688;2022-12-07T12:06:14;5.40;;;1.02;;
42244;SDS011;27912;51.828;5.688;2022-12-07T12:08:45;6.88;;;1.40;;
42244;SDS011;27912;51.828;5.688;2022-12-07T12:13:57;3.72;;;0.95;;
42244;SDS011;27912;51.828;5.688;2022-12-07T12:19:32;8.15;;;1.00;;
42244;SDS011;27912;51.828;5.688;2022-12-07T12:22:18;9.75;;;1.10;;
42244;SDS011;27912;51.828;5.688;2022-12-07T12:24:48;4.88;;;1.00;;
42244;SDS011;27912;51.828;5.688;2022-12-07T12:29:53;8.65;;;1.50;;
42244;SDS011;27912;51.828;5.688;2022-12-07T12:32:22;7.75;;;0.85;;
42244;SDS011;27912;51.828;5.688;2022-12-07T12:35:01;6.60;;;1.00;;
42244;SDS011;27912;51.828;5.688;2022-12-07T12:37:45;3.90;;;0.50;;
42244;SDS011;27912;51.828;5.688;2022-12-07T12:42:56;3.78;;;0.50;;
42244;SDS011;27912;51.828;5.688;2022-12-07T12:45:25;3.75;;;0.52;;
42244;SDS011;27912;51.828;5.688;2022-12-07T12:48:03;4.80;;;0.40;;
42244;SDS011;27912;51.828;5.688;2022-12-07T12:50:30;4.65;;;0.40;;
42244;SDS011;27912;51.828;5.688;2022-12-07T12:53:02;5.45;;;0.32;;
42244;SDS011;27912;51.828;5.688;2022-12-07T12:58:25;4.65;;;0.30;;
42244;SDS011;27912;51.828;5.688;2022-12-07T13:04:12;4.32;;;0.55;;
42244;SDS011;27912;51.828;5.688;2022-12-07T13:06:46;3.15;;;0.30;;
42244;SDS011;27912;51.828;5.688;2022-12-07T13:09:22;4.68;;;0.40;;
42244;SDS011;27912;51.828;5.688;2022-12-07T13:12:00;6.03;;;0.30;;
42244;SDS011;27912;51.828;5.688;2022-12-07T13:17:09;3.75;;;0.50;;
42244;SDS011;27912;51.828;5.688;2022-12-07T13:19:54;3.53;;;0.20;;
42244;SDS011;27912;51.828;5.688;2022-12-07T13:25:11;1.88;;;0.30;;
42244;SDS011;27912;51.828;5.688;2022-12-07T13:27:37;4.20;;;0.30;;
42244;SDS011;27912;51.828;5.688;2022-12-07T13:30:16;5.15;;;0.30;;
42244;SDS011;27912;51.828;5.688;2022-12-07T13:32:52;3.45;;;0.32;;
42244;SDS011;27912;51.828;5.688;2022-12-07T13:35:32;6.32;;;0.47;;
42244;SDS011;27912;51.828;5.688;2022-12-07T13:38:05;7.32;;;0.52;;
42244;SDS011;27912;51.828;5.688;2022-12-07T13:40:58;3.95;;;0.70;;
42244;SDS011;27912;51.828;5.688;2022-12-07T13:44:23;10.80;;;1.15;;
42244;SDS011;27912;51.828;5.688;2022-12-07T13:46:51;14.88;;;1.02;;
42244;SDS011;27912;51.828;5.688;2022-12-07T13:49:22;5.00;;;0.50;;
42244;SDS011;27912;51.828;5.688;2022-12-07T13:52:06;7.50;;;0.60;;
42244;SDS011;27912;51.828;5.688;2022-12-07T13:57:30;3.63;;;0.50;;
42244;SDS011;27912;51.828;5.688;2022-12-07T13:59:56;7.93;;;0.73;;
42244;SDS011;27912;51.828;5.688;2022-12-07T14:02:26;4.38;;;0.55;;
42244;SDS011;27912;51.828;5.688;2022-12-07T14:05:06;10.40;;;0.85;;
42244;SDS011;27912;51.828;5.688;2022-12-07T14:07:59;5.53;;;0.60;;
42244;SDS011;27912;51.828;5.688;2022-12-07T14:10:33;7.00;;;0.75;;
42244;SDS011;27912;51.828;5.688;2022-12-07T14:13:02;5.95;;;0.70;;
42244;SDS011;27912;51.828;5.688;2022-12-07T14:15:49;6.82;;;0.70;;
42244;SDS011;27912;51.828;5.688;2022-12-07T14:18:29;6.63;;;0.82;;
42244;SDS011;27912;51.828;5.688;2022-12-07T14:23:36;7.63;;;0.95;;
42244;SDS011;27912;51.828;5.688;2022-12-07T14:26:16;7.68;;;0.93;;
42244;SDS011;27912;51.828;5.688;2022-12-07T14:28:44;6.57;;;0.90;;
42244;SDS011;27912;51.828;5.688;2022-12-07T14:31:12;5.38;;;0.90;;
42244;SDS011;27912;51.828;5.688;2022-12-07T14:33:42;4.90;;;0.82;;
42244;SDS011;27912;51.828;5.688;2022-12-07T14:36:09;8.35;;;0.77;;
42244;SDS011;27912;51.828;5.688;2022-12-07T14:38:38;8.25;;;1.05;;
42244;SDS011;27912;51.828;5.688;2022-12-07T14:41:06;6.93;;;0.93;;
42244;SDS011;27912;51.828;5.688;2022-12-07T14:43:57;4.35;;;0.80;;
42244;SDS011;27912;51.828;5.688;2022-12-07T14:46:23;8.20;;;0.85;;
42244;SDS011;27912;51.828;5.688;2022-12-07T14:48:49;8.60;;;0.77;;
42244;SDS011;27912;51.828;5.688;2022-12-07T14:51:15;4.00;;;0.60;;
42244;SDS011;27912;51.828;5.688;2022-12-07T14:53:42;7.60;;;0.77;;
42244;SDS011;27912;51.828;5.688;2022-12-07T14:56:13;5.03;;;0.82;;
42244;SDS011;27912;51.828;5.688;2022-12-07T14:58:39;2.60;;;0.40;;
42244;SDS011;27912;51.828;5.688;2022-12-07T15:01:05;5.97;;;0.50;;
42244;SDS011;27912;51.828;5.688;2022-12-07T15:03:30;5.55;;;0.55;;
42244;SDS011;27912;51.828;5.688;2022-12-07T15:05:56;3.67;;;0.50;;
42244;SDS011;27912;51.828;5.688;2022-12-07T15:08:22;3.42;;;0.30;;
42244;SDS011;27912;51.828;5.688;2022-12-07T15:10:48;2.25;;;0.22;;
42244;SDS011;27912;51.828;5.688;2022-12-07T15:13:13;6.65;;;0.52;;
42244;SDS011;27912;51.828;5.688;2022-12-07T15:15:57;3.72;;;0.25;;
42244;SDS011;27912;51.828;5.688;2022-12-07T15:18:23;2.78;;;0.25;;
42244;SDS011;27912;51.828;5.688;2022-12-07T15:20:49;5.53;;;0.30;;
42244;SDS011;27912;51.828;5.688;2022-12-07T15:23:15;5.05;;;0.30;;
42244;SDS011;27912;51.828;5.688;2022-12-07T15:25:44;1.15;;;0.20;;
42244;SDS011;27912;51.828;5.688;2022-12-07T15:28:12;3.38;;;0.50;;
42244;SDS011;27912;51.828;5.688;2022-12-07T15:30:38;2.90;;;0.45;;
42244;SDS011;27912;51.828;5.688;2022-12-07T15:33:05;2.55;;;0.20;;
42244;SDS011;27912;51.828;5.688;2022-12-07T15:35:31;1.88;;;0.20;;
42244;SDS011;27912;51.828;5.688;2022-12-07T15:37:56;4.43;;;0.28;;
42244;SDS011;27912;51.828;5.688;2022-12-07T15:40:22;6.10;;;0.30;;
42244;SDS011;27912;51.828;5.688;2022-12-07T15:42:47;2.53;;;0.20;;
42244;SDS011;27912;51.828;5.688;2022-12-07T15:45:13;1.25;;;0.30;;
42244;SDS011;27912;51.828;5.688;2022-12-07T15:47:42;2.67;;;0.32;;
42244;SDS011;27912;51.828;5.688;2022-12-07T15:50:13;1.73;;;0.30;;
42244;SDS011;27912;51.828;5.688;2022-12-07T15:52:40;6.40;;;0.30;;
42244;SDS011;27912;51.828;5.688;2022-12-07T15:55:06;3.38;;;0.25;;
42244;SDS011;27912;51.828;5.688;2022-12-07T15:57:32;3.58;;;0.40;;
42244;SDS011;27912;51.828;5.688;2022-12-07T15:59:59;2.30;;;0.30;;
42244;SDS011;27912;51.828;5.688;2022-12-07T16:02:25;2.05;;;0.22;;
42244;SDS011;27912;51.828;5.688;2022-12-07T16:04:51;2.03;;;0.40;;
42244;SDS011;27912;51.828;5.688;2022-12-07T16:07:17;3.50;;;0.47;;
42244;SDS011;27912;51.828;5.688;2022-12-07T16:09:44;6.57;;;0.40;;
42244;SDS011;27912;51.828;5.688;2022-12-07T16:12:11;3.45;;;0.50;;
42244;SDS011;27912;51.828;5.688;2022-12-07T16:14:39;3.90;;;0.50;;
42244;SDS011;27912;51.828;5.688;2022-12-07T16:17:05;1.92;;;0.63;;
42244;SDS011;27912;51.828;5.688;2022-12-07T16:19:32;6.30;;;0.60;;
42244;SDS011;27912;51.828;5.688;2022-12-07T16:21:58;2.65;;;0.60;;
42244;SDS011;27912;51.828;5.688;2022-12-07T16:24:24;5.47;;;0.90;;
42244;SDS011;27912;51.828;5.688;2022-12-07T16:26:50;4.20;;;0.68;;
42244;SDS011;27912;51.828;5.688;2022-12-07T16:29:17;5.43;;;0.60;;
42244;SDS011;27912;51.828;5.688;2022-12-07T16:31:44;3.45;;;0.80;;
42244;SDS011;27912;51.828;5.688;2022-12-07T16:34:09;5.30;;;0.90;;
42244;SDS011;27912;51.828;5.688;2022-12-07T16:36:35;2.60;;;0.70;;
42244;SDS011;27912;51.828;5.688;2022-12-07T16:39:01;4.90;;;1.00;;
42244;SDS011;27912;51.828;5.688;2022-12-07T16:41:26;7.90;;;1.00;;
42244;SDS011;27912;51.828;5.688;2022-12-07T16:43:52;2.33;;;0.70;;
42244;SDS011;27912;51.828;5.688;2022-12-07T16:46:17;5.38;;;1.08;;